createdAt,value
2019-02-19T00:00:19.101Z,85.12
2019-02-19T00:01:19.091Z,85.12
2019-02-19T00:02:19.119Z,85.05
2019-02-19T00:03:19.098Z,85.02
2019-02-19T00:04:19.055Z,84.70
2019-02-19T00:05:19.048Z,85.22
2019-02-19T00:06:19.031Z,84.91
2019-02-19T00:07:19.028Z,85.22
2019-02-19T00:08:19.014Z,85.12
2019-02-19T00:09:19.022Z,84.91
2019-02-19T00:10:18.987Z,85.36
2019-02-19T00:11:18.979Z,85.16
2019-02-19T00:12:18.970Z,85.05
2019-02-19T00:13:18.960Z,85.89
2019-02-19T00:14:18.957Z,85.43
2019-02-19T00:15:18.955Z,85.64
2019-02-19T00:16:18.927Z,85.78
2019-02-19T00:17:18.918Z,86.41
2019-02-19T00:18:18.940Z,86.20
2019-02-19T00:19:18.900Z,86.41
2019-02-19T00:20:18.886Z,86.35
2019-02-19T00:21:18.973Z,86.66
2019-02-19T00:22:18.862Z,86.66
2019-02-19T00:23:18.861Z,86.55
2019-02-19T00:24:18.840Z,87.07
2019-02-19T00:25:18.840Z,87.39
2019-02-19T00:26:18.833Z,86.87
2019-02-19T00:27:18.929Z,86.83
2019-02-19T00:28:18.830Z,86.35
2019-02-19T00:29:18.800Z,86.45
2019-02-19T00:30:18.779Z,86.41
2019-02-19T00:31:18.772Z,86.35
2019-02-19T00:32:18.766Z,86.97
2019-02-19T00:33:18.782Z,87.07
2019-02-19T00:34:18.743Z,87.18
2019-02-19T00:35:18.731Z,87.81
2019-02-19T00:36:18.727Z,86.76
2019-02-19T00:37:18.708Z,86.97
2019-02-19T00:38:18.705Z,87.39
2019-02-19T00:39:18.714Z,87.39
2019-02-19T00:40:18.704Z,87.39
2019-02-19T00:41:18.667Z,87.14
2019-02-19T00:42:18.656Z,86.20
2019-02-19T00:43:18.650Z,86.72
2019-02-19T00:44:18.672Z,86.47
2019-02-19T00:45:18.644Z,86.27
2019-02-19T00:46:18.615Z,85.43
2019-02-19T00:47:18.612Z,85.02
2019-02-19T00:48:18.593Z,84.81
2019-02-19T00:49:18.583Z,85.12
2019-02-19T00:50:18.577Z,85.47
2019-02-19T00:51:18.660Z,85.85
2019-02-19T00:52:18.558Z,86.30
2019-02-19T00:53:18.536Z,86.72
2019-02-19T00:54:18.532Z,85.89
2019-02-19T00:55:18.519Z,86.68
2019-02-19T00:56:18.526Z,85.53
2019-02-19T00:57:18.599Z,85.47
2019-02-19T00:58:18.493Z,86.51
2019-02-19T00:59:18.475Z,86.10
2019-02-19T01:00:18.468Z,86.72
2019-02-19T01:01:18.468Z,86.55
2019-02-19T01:02:18.446Z,86.87
2019-02-19T01:03:18.471Z,86.76
2019-02-19T01:04:18.423Z,87.39
2019-02-19T01:05:18.411Z,87.01
2019-02-19T01:06:18.404Z,88.06
2019-02-19T01:07:18.394Z,87.32
2019-02-19T01:08:18.384Z,88.26
2019-02-19T01:09:18.404Z,88.47
2019-02-19T01:10:18.359Z,88.26
2019-02-19T01:11:18.354Z,88.26
2019-02-19T01:12:18.347Z,88.37
2019-02-19T01:13:18.334Z,87.32
2019-02-19T01:14:18.340Z,88.16
2019-02-19T01:15:25.250Z,88.06
2019-02-19T01:16:19.301Z,87.53
2019-02-19T01:17:18.287Z,87.84
2019-02-19T01:18:18.298Z,88.06
2019-02-19T01:19:18.272Z,88.12
2019-02-19T01:20:18.255Z,87.28
2019-02-19T01:21:18.274Z,86.97
2019-02-19T01:22:18.235Z,87.53
2019-02-19T01:23:18.227Z,88.06
2019-02-19T01:24:18.217Z,87.43
2019-02-19T01:25:18.207Z,87.84
2019-02-19T01:26:18.207Z,87.63
2019-02-19T01:27:18.223Z,87.95
2019-02-19T01:28:18.172Z,88.16
2019-02-19T01:29:18.165Z,88.16
2019-02-19T01:30:18.153Z,87.74
2019-02-19T01:31:18.146Z,88.06
2019-02-19T01:32:18.133Z,88.47
2019-02-19T01:33:18.159Z,88.57
2019-02-19T01:34:18.112Z,88.06
2019-02-19T01:35:18.102Z,88.47
2019-02-19T01:36:18.092Z,88.26
2019-02-19T01:37:18.089Z,88.47
2019-02-19T01:38:18.076Z,88.82
2019-02-19T01:39:18.076Z,88.37
2019-02-19T01:40:18.057Z,88.26
2019-02-19T01:41:18.044Z,88.47
2019-02-19T01:42:18.031Z,88.37
2019-02-19T01:43:18.025Z,88.16
2019-02-19T01:44:18.012Z,88.20
2019-02-19T01:45:18.041Z,88.30
2019-02-19T01:46:17.992Z,88.82
2019-02-19T01:47:17.981Z,88.51
2019-02-19T01:48:17.980Z,88.93
2019-02-19T01:49:17.968Z,88.62
2019-02-19T01:50:17.957Z,88.72
2019-02-19T01:51:18.042Z,88.93
2019-02-19T01:52:17.928Z,88.82
2019-02-19T01:53:17.922Z,88.93
2019-02-19T01:54:17.913Z,88.62
2019-02-19T01:55:17.896Z,88.82
2019-02-19T01:56:17.887Z,88.72
2019-02-19T01:57:17.977Z,88.72
2019-02-19T01:58:17.866Z,89.03
2019-02-19T01:59:17.864Z,89.14
2019-02-19T02:00:17.851Z,89.14
2019-02-19T02:01:17.838Z,88.93
2019-02-19T02:02:17.842Z,88.82
2019-02-19T02:03:17.849Z,88.72
2019-02-19T02:04:17.808Z,88.87
2019-02-19T02:05:17.791Z,88.76
2019-02-19T02:06:17.788Z,89.07
2019-02-19T02:07:17.768Z,89.28
2019-02-19T02:08:17.765Z,89.59
2019-02-19T02:09:17.768Z,89.70
2019-02-19T02:10:17.743Z,89.03
2019-02-19T02:11:17.731Z,89.34
2019-02-19T02:12:17.738Z,89.34
2019-02-19T02:13:17.709Z,88.82
2019-02-19T02:14:17.719Z,88.62
2019-02-19T02:15:17.715Z,88.51
2019-02-19T02:16:17.683Z,88.20
2019-02-19T02:17:17.670Z,88.30
2019-02-19T02:18:17.657Z,88.30
2019-02-19T02:19:17.651Z,88.20
2019-02-19T02:20:17.642Z,88.30
2019-02-19T02:21:17.646Z,87.99
2019-02-19T02:22:17.622Z,88.30
2019-02-19T02:23:17.606Z,88.41
2019-02-19T02:24:17.596Z,88.93
2019-02-19T02:25:17.603Z,88.51
2019-02-19T02:26:17.581Z,88.41
2019-02-19T02:27:17.673Z,88.51
2019-02-19T02:28:17.558Z,88.51
2019-02-19T02:29:17.549Z,88.62
2019-02-19T02:30:17.543Z,89.07
2019-02-19T02:31:17.529Z,89.18
2019-02-19T02:32:17.534Z,89.59
2019-02-19T02:33:17.606Z,89.28
2019-02-19T02:34:17.508Z,89.34
2019-02-19T02:35:17.484Z,89.28
2019-02-19T02:36:17.475Z,89.18
2019-02-19T02:37:17.461Z,89.07
2019-02-19T02:38:17.467Z,89.59
2019-02-19T02:39:17.549Z,90.01
2019-02-19T02:40:17.447Z,89.84
2019-02-19T02:41:17.423Z,89.84
2019-02-19T02:42:17.414Z,90.47
2019-02-19T02:43:17.412Z,90.37
2019-02-19T02:44:17.402Z,90.47
2019-02-19T02:45:17.406Z,90.47
2019-02-19T02:46:17.382Z,90.58
2019-02-19T02:47:17.374Z,90.47
2019-02-19T02:48:17.350Z,90.58
2019-02-19T02:49:17.338Z,91.00
2019-02-19T02:50:17.331Z,90.78
2019-02-19T02:51:17.339Z,90.78
2019-02-19T02:52:17.313Z,90.89
2019-02-19T02:53:17.306Z,91.00
2019-02-19T02:54:17.288Z,90.47
2019-02-19T02:55:17.276Z,90.58
2019-02-19T02:56:17.268Z,90.58
2019-02-19T02:57:17.292Z,90.47
2019-02-19T02:58:17.250Z,90.43
2019-02-19T02:59:17.231Z,90.22
2019-02-19T03:00:17.239Z,91.00
2019-02-19T03:01:17.220Z,90.95
2019-02-19T03:02:17.206Z,90.85
2019-02-19T03:03:17.226Z,90.33
2019-02-19T03:04:17.187Z,90.43
2019-02-19T03:05:17.185Z,89.91
2019-02-19T03:06:17.182Z,89.81
2019-02-19T03:07:17.156Z,89.39
2019-02-19T03:08:17.146Z,89.91
2019-02-19T03:09:17.236Z,89.81
2019-02-19T03:10:17.125Z,90.06
2019-02-19T03:11:17.122Z,90.06
2019-02-19T03:12:17.121Z,90.06
2019-02-19T03:13:17.107Z,90.58
2019-02-19T03:14:17.087Z,91.06
2019-02-19T03:15:17.175Z,90.06
2019-02-19T03:16:17.061Z,90.06
2019-02-19T03:17:17.059Z,89.95
2019-02-19T03:18:17.039Z,90.68
2019-02-19T03:19:17.091Z,90.68
2019-02-19T03:20:17.023Z,90.47
2019-02-19T03:21:17.050Z,90.41
2019-02-19T03:22:16.999Z,90.93
2019-02-19T03:23:16.986Z,90.52
2019-02-19T03:24:16.982Z,90.93
2019-02-19T03:25:16.970Z,91.03
2019-02-19T03:26:16.957Z,91.25
2019-02-19T03:27:16.981Z,91.25
2019-02-19T03:28:16.938Z,91.25
2019-02-19T03:29:16.928Z,90.72
2019-02-19T03:30:16.929Z,91.03
2019-02-19T03:31:16.941Z,91.03
2019-02-19T03:32:16.911Z,90.83
2019-02-19T03:33:16.916Z,91.35
2019-02-19T03:34:16.879Z,90.93
2019-02-19T03:35:16.865Z,90.87
2019-02-19T03:36:16.857Z,91.46
2019-02-19T03:37:16.880Z,91.25
2019-02-19T03:38:16.845Z,91.87
2019-02-19T03:39:16.842Z,91.66
2019-02-19T03:40:16.821Z,91.56
2019-02-19T03:41:16.807Z,91.56
2019-02-19T03:42:16.805Z,91.35
2019-02-19T03:43:16.785Z,91.60
2019-02-19T03:44:16.778Z,91.77
2019-02-19T03:45:16.858Z,91.98
2019-02-19T03:46:16.755Z,91.56
2019-02-19T03:47:16.740Z,90.83
2019-02-19T03:48:16.728Z,91.25
2019-02-19T03:50:18.658Z,91.25
2019-02-19T03:51:18.553Z,91.03
2019-02-19T03:52:18.551Z,91.46
2019-02-19T03:53:18.531Z,92.08
2019-02-19T03:54:18.524Z,91.87
2019-02-19T03:55:18.510Z,92.50
2019-02-19T03:56:18.537Z,92.54
2019-02-19T03:57:18.492Z,92.82
2019-02-19T03:58:18.480Z,92.08
2019-02-19T03:59:18.475Z,92.82
2019-02-19T04:00:18.462Z,92.82
2019-02-19T04:01:18.460Z,92.92
2019-02-19T04:02:18.515Z,92.50
2019-02-19T04:03:18.427Z,92.60
2019-02-19T04:04:18.420Z,92.40
2019-02-19T04:05:18.406Z,92.71
2019-02-19T04:06:18.407Z,92.92
2019-02-19T04:07:18.391Z,92.65
2019-02-19T04:08:18.393Z,92.40
2019-02-19T04:09:18.373Z,91.91
2019-02-19T04:10:18.359Z,91.91
2019-02-19T04:11:18.385Z,92.02
2019-02-19T04:12:18.332Z,92.33
2019-02-19T04:13:18.328Z,92.85
2019-02-19T04:14:18.332Z,93.38
2019-02-19T04:15:18.301Z,93.38
2019-02-19T04:16:21.248Z,93.27
2019-02-19T04:17:18.295Z,93.07
2019-02-19T04:18:18.271Z,93.17
2019-02-19T04:19:18.264Z,92.75
2019-02-19T04:20:18.285Z,93.02
2019-02-19T04:21:18.241Z,92.65
2019-02-19T04:22:18.229Z,92.54
2019-02-19T04:23:18.215Z,92.13
2019-02-19T04:24:18.205Z,92.65
2019-02-19T04:25:18.199Z,92.65
2019-02-19T04:26:18.199Z,91.91
2019-02-19T04:27:18.176Z,91.91
2019-02-19T04:28:18.169Z,92.38
2019-02-19T04:29:18.154Z,92.90
2019-02-19T04:30:18.150Z,93.01
2019-02-19T04:31:18.132Z,93.42
2019-02-19T04:32:18.162Z,93.95
2019-02-19T04:33:18.110Z,93.63
2019-02-19T04:34:18.098Z,93.42
2019-02-19T04:35:18.105Z,93.42
2019-02-19T04:36:18.078Z,93.52
2019-02-19T04:37:18.075Z,93.63
2019-02-19T04:38:18.088Z,93.70
2019-02-19T04:39:18.046Z,93.07
2019-02-19T04:40:18.040Z,93.38
2019-02-19T04:41:18.028Z,93.38
2019-02-19T04:42:18.018Z,93.07
2019-02-19T04:43:18.004Z,93.27
2019-02-19T04:44:18.011Z,93.23
2019-02-19T04:45:17.985Z,92.71
2019-02-19T04:46:17.973Z,92.82
2019-02-19T04:47:17.965Z,92.71
2019-02-19T04:48:17.954Z,92.85
2019-02-19T04:49:17.984Z,92.82
2019-02-19T04:50:19.733Z,92.82
2019-02-19T04:51:17.920Z,92.50
2019-02-19T04:52:17.910Z,93.07
2019-02-19T04:53:17.898Z,92.85
2019-02-19T04:54:17.887Z,93.07
2019-02-19T04:55:17.880Z,92.96
2019-02-19T04:56:17.885Z,93.07
2019-02-19T04:57:17.857Z,92.92
2019-02-19T04:58:17.846Z,93.17
2019-02-19T04:59:17.836Z,92.65
2019-02-19T05:00:17.821Z,92.54
2019-02-19T05:01:17.821Z,92.44
2019-02-19T05:02:17.825Z,92.44
2019-02-19T05:03:17.789Z,92.54
2019-02-19T05:04:18.529Z,92.54
2019-02-19T05:05:17.774Z,92.96
2019-02-19T05:06:17.763Z,93.07
2019-02-19T05:07:17.753Z,92.85
2019-02-19T05:08:17.757Z,92.85
2019-02-19T05:09:17.732Z,92.44
2019-02-19T05:10:17.721Z,92.19
2019-02-19T05:11:17.710Z,92.54
2019-02-19T05:12:17.712Z,91.98
2019-02-19T05:13:17.689Z,92.08
2019-02-19T05:14:17.781Z,92.08
2019-02-19T05:15:17.662Z,91.77
2019-02-19T05:16:17.655Z,91.91
2019-02-19T05:17:17.643Z,92.13
2019-02-19T05:18:17.633Z,92.02
2019-02-19T05:19:17.662Z,92.02
2019-02-19T05:20:17.651Z,92.54
2019-02-19T05:21:17.602Z,92.96
2019-02-19T05:22:17.592Z,93.17
2019-02-19T05:23:17.583Z,92.54
2019-02-19T05:24:17.567Z,91.91
2019-02-19T05:25:17.563Z,91.91
2019-02-19T05:26:17.567Z,92.50
2019-02-19T05:27:17.583Z,92.02
2019-02-19T05:28:17.534Z,91.91
2019-02-19T05:29:17.523Z,92.08
2019-02-19T05:30:17.509Z,92.08
2019-02-19T05:31:17.498Z,91.91
2019-02-19T05:32:17.499Z,91.50
2019-02-19T05:33:17.483Z,91.87
2019-02-19T05:34:17.467Z,91.60
2019-02-19T05:35:17.454Z,91.91
2019-02-19T05:36:17.450Z,92.02
2019-02-19T05:37:17.435Z,92.23
2019-02-19T05:38:17.437Z,92.06
2019-02-19T05:39:17.409Z,92.16
2019-02-19T05:40:17.406Z,92.54
2019-02-19T05:41:17.392Z,92.58
2019-02-19T05:42:17.379Z,91.96
2019-02-19T05:43:17.370Z,92.58
2019-02-19T05:44:17.376Z,92.48
2019-02-19T05:45:17.350Z,92.69
2019-02-19T05:46:17.338Z,92.58
2019-02-19T05:47:17.327Z,92.79
2019-02-19T05:48:17.322Z,93.32
2019-02-19T05:49:17.308Z,92.79
2019-02-19T05:50:17.308Z,92.69
2019-02-19T05:51:17.285Z,92.58
2019-02-19T05:52:17.278Z,92.58
2019-02-19T05:53:17.260Z,92.58
2019-02-19T05:54:17.253Z,92.58
2019-02-19T05:55:17.242Z,92.16
2019-02-19T05:56:17.250Z,92.16
2019-02-19T05:57:17.220Z,91.91
2019-02-19T05:58:17.209Z,92.27
2019-02-19T05:59:17.203Z,92.27
2019-02-19T06:00:17.189Z,92.06
2019-02-19T06:01:17.180Z,92.16
2019-02-19T06:02:17.184Z,92.16
2019-02-19T06:03:17.162Z,91.96
2019-02-19T06:04:17.148Z,92.38
2019-02-19T06:05:17.139Z,92.16
2019-02-19T06:06:17.128Z,92.73
2019-02-19T06:07:17.117Z,92.79
2019-02-19T06:08:17.122Z,92.48
2019-02-19T06:09:17.093Z,92.48
2019-02-19T06:10:17.087Z,91.96
2019-02-19T06:11:17.078Z,92.06
2019-02-19T06:12:17.062Z,92.48
2019-02-19T06:13:17.058Z,92.79
2019-02-19T06:14:17.056Z,93.01
2019-02-19T06:15:17.033Z,93.11
2019-02-19T06:16:17.019Z,93.21
2019-02-19T06:17:17.013Z,93.01
2019-02-19T06:18:17.002Z,92.73
2019-02-19T06:19:16.987Z,92.73
2019-02-19T06:20:17.083Z,93.32
2019-02-19T06:21:16.969Z,93.21
2019-02-19T06:22:16.959Z,92.69
2019-02-19T06:23:16.950Z,93.01
2019-02-19T06:24:16.938Z,93.11
2019-02-19T06:25:16.939Z,93.21
2019-02-19T06:26:16.930Z,93.32
2019-02-19T06:27:16.906Z,92.69
2019-02-19T06:28:16.895Z,92.69
2019-02-19T06:29:16.891Z,91.96
2019-02-19T06:30:16.872Z,92.16
2019-02-19T06:31:16.867Z,92.06
2019-02-19T06:32:16.870Z,92.16
2019-02-19T06:33:16.849Z,92.06
2019-02-19T06:34:16.831Z,92.16
2019-02-19T06:35:16.821Z,92.16
2019-02-19T06:36:16.808Z,91.96
2019-02-19T06:37:16.802Z,91.96
2019-02-19T06:38:16.805Z,91.43
2019-02-19T06:39:16.779Z,91.60
2019-02-19T06:40:16.773Z,91.33
2019-02-19T06:41:16.761Z,90.97
2019-02-19T06:42:16.747Z,90.97
2019-02-19T06:43:16.740Z,91.08
2019-02-19T06:44:16.744Z,90.93
2019-02-19T06:45:16.750Z,90.45
2019-02-19T06:46:16.707Z,90.72
2019-02-19T06:47:16.698Z,89.89
2019-02-19T06:48:16.684Z,89.68
2019-02-19T06:49:16.672Z,90.09
2019-02-19T06:50:16.678Z,89.68
2019-02-19T06:51:16.653Z,89.22
2019-02-19T06:52:16.636Z,89.22
2019-02-19T06:53:16.630Z,89.15
2019-02-19T06:54:16.620Z,88.70
2019-02-19T06:55:16.626Z,88.80
2019-02-19T06:56:16.614Z,88.70
2019-02-19T06:57:16.588Z,88.70
2019-02-19T06:58:16.579Z,88.55
2019-02-19T06:59:16.573Z,88.55
2019-02-19T07:00:16.551Z,88.55
2019-02-19T07:01:16.544Z,88.07
2019-02-19T07:02:16.553Z,88.03
2019-02-19T07:03:16.525Z,88.55
2019-02-19T07:04:16.515Z,88.45
2019-02-19T07:05:16.503Z,88.24
2019-02-19T07:06:16.498Z,86.88
2019-02-19T07:07:16.484Z,86.99
2019-02-19T07:08:16.490Z,86.99
2019-02-19T07:09:16.463Z,87.05
2019-02-19T07:10:16.456Z,86.74
2019-02-19T07:11:16.442Z,85.03
2019-02-19T07:12:16.429Z,84.16
2019-02-19T07:13:16.423Z,83.39
2019-02-19T07:14:16.422Z,82.51
2019-02-19T07:15:16.397Z,81.54
2019-02-19T07:16:16.384Z,80.77
2019-02-19T07:17:16.375Z,79.28
2019-02-19T07:18:16.365Z,78.00
2019-02-19T07:19:16.361Z,77.58
2019-02-19T07:20:16.382Z,76.33
2019-02-19T07:21:16.333Z,77.23
2019-02-19T07:22:16.321Z,77.03
2019-02-19T07:23:16.318Z,75.43
2019-02-19T07:24:16.304Z,76.57
2019-02-19T07:25:16.292Z,75.29
2019-02-19T07:26:16.295Z,75.19
2019-02-19T07:27:16.269Z,74.88
2019-02-19T07:28:16.315Z,74.57
2019-02-19T07:29:16.254Z,74.43
2019-02-19T07:30:16.243Z,74.05
2019-02-19T07:31:16.228Z,74.19
2019-02-19T07:32:16.243Z,73.28
2019-02-19T07:33:16.209Z,72.97
2019-02-19T07:34:16.198Z,73.60
2019-02-19T07:35:16.183Z,73.74
2019-02-19T07:36:16.170Z,74.26
2019-02-19T07:37:16.166Z,74.36
2019-02-19T07:38:16.170Z,73.77
2019-02-19T07:39:16.141Z,72.63
2019-02-19T07:40:17.489Z,72.84
2019-02-19T07:41:16.123Z,72.08
2019-02-19T07:42:16.109Z,71.01
2019-02-19T07:43:16.097Z,71.49
2019-02-19T07:44:16.105Z,70.49
2019-02-19T07:45:16.078Z,70.49
2019-02-19T07:46:16.068Z,70.80
2019-02-19T07:47:24.255Z,70.94
2019-02-19T07:48:17.044Z,71.22
2019-02-19T07:49:16.033Z,70.67
2019-02-19T07:50:16.125Z,69.53
2019-02-19T07:51:16.013Z,69.08
2019-02-19T07:52:16.001Z,69.08
2019-02-19T07:53:15.996Z,68.29
2019-02-19T07:54:15.979Z,69.12
2019-02-19T07:55:15.968Z,68.80
2019-02-19T07:56:15.993Z,67.98
2019-02-19T07:57:15.949Z,68.49
2019-02-19T07:58:15.938Z,68.19
2019-02-19T07:59:15.924Z,67.25
2019-02-19T08:00:15.915Z,66.91
2019-02-19T08:01:15.900Z,67.30
2019-02-19T08:02:15.910Z,68.02
2019-02-19T08:03:15.883Z,66.44
2019-02-19T08:04:15.867Z,66.47
2019-02-19T08:05:15.861Z,68.12
2019-02-19T08:06:15.848Z,65.20
2019-02-19T08:07:15.840Z,66.47
2019-02-19T08:08:15.845Z,66.85
2019-02-19T08:09:15.819Z,64.76
2019-02-19T08:10:15.807Z,64.11
2019-02-19T08:11:15.794Z,63.19
2019-02-19T08:12:15.787Z,62.19
2019-02-19T08:13:15.778Z,63.07
2019-02-19T08:14:15.778Z,63.31
2019-02-19T08:15:15.755Z,64.42
2019-02-19T08:16:15.755Z,63.56
2019-02-19T08:17:15.730Z,62.84
2019-02-19T08:18:15.718Z,62.81
2019-02-19T08:19:15.746Z,62.22
2019-02-19T08:20:16.451Z,63.87
2019-02-19T08:21:15.689Z,63.79
2019-02-19T08:22:15.676Z,64.11
2019-02-19T08:23:15.669Z,63.90
2019-02-19T08:24:15.654Z,63.15
2019-02-19T08:25:15.647Z,63.74
2019-02-19T08:26:15.657Z,62.24
2019-02-19T08:27:15.625Z,59.17
2019-02-19T08:28:15.612Z,59.24
2019-02-19T08:29:15.600Z,59.42
2019-02-19T08:30:15.593Z,57.51
2019-02-19T08:31:15.577Z,56.46
2019-02-19T08:32:15.583Z,57.34
2019-02-19T08:33:15.557Z,57.34
2019-02-19T08:34:15.545Z,57.03
2019-02-19T08:35:15.535Z,57.67
2019-02-19T08:36:15.529Z,56.21
2019-02-19T08:37:15.512Z,54.79
2019-02-19T08:38:15.609Z,55.10
2019-02-19T08:39:15.497Z,55.82
2019-02-19T08:40:15.480Z,54.90
2019-02-19T08:41:15.479Z,54.69
2019-02-19T08:42:15.461Z,55.21
2019-02-19T08:43:15.448Z,56.95
2019-02-19T08:44:15.460Z,55.28
2019-02-19T08:45:15.435Z,56.95
2019-02-19T08:46:15.415Z,58.59
2019-02-19T08:47:15.403Z,58.70
2019-02-19T08:48:15.393Z,59.06
2019-02-19T08:49:15.384Z,60.82
2019-02-19T08:50:15.391Z,63.35
2019-02-19T08:51:15.361Z,65.76
2019-02-19T08:52:15.353Z,65.11
2019-02-19T08:53:15.336Z,64.74
2019-02-19T08:54:15.328Z,62.78
2019-02-19T08:55:15.315Z,63.74
2019-02-19T08:56:15.321Z,63.81
2019-02-19T08:57:15.293Z,63.09
2019-02-19T08:58:15.283Z,62.68
2019-02-19T08:59:15.270Z,63.17
2019-02-19T09:00:15.264Z,63.78
2019-02-19T09:01:15.254Z,62.31
2019-02-19T09:02:15.264Z,62.10
2019-02-19T09:03:16.865Z,62.24
2019-02-19T09:04:15.223Z,63.17
2019-02-19T09:05:15.207Z,62.41
2019-02-19T09:06:15.196Z,61.46
2019-02-19T09:07:15.187Z,61.25
2019-02-19T09:08:15.188Z,60.71
2019-02-19T09:09:15.164Z,60.86
2019-02-19T09:10:15.157Z,57.03
2019-02-19T09:11:15.141Z,55.21
2019-02-19T09:12:15.133Z,55.00
2019-02-19T09:13:15.122Z,54.46
2019-02-19T09:14:15.129Z,54.31
2019-02-19T09:15:15.099Z,54.21
2019-02-19T09:16:15.092Z,54.31
2019-02-19T09:17:15.080Z,53.82
2019-02-19T09:18:15.068Z,53.74
2019-02-19T09:19:15.057Z,57.03
2019-02-19T09:20:15.061Z,54.77
2019-02-19T09:21:15.039Z,54.72
2019-02-19T09:22:15.022Z,53.36
2019-02-19T09:23:15.009Z,54.23
2019-02-19T09:24:15.000Z,54.51
2019-02-19T09:25:14.987Z,54.28
2019-02-19T09:26:15.062Z,54.18
2019-02-19T09:27:14.970Z,54.41
2019-02-19T09:28:14.958Z,54.28
2019-02-19T09:29:14.945Z,54.59
2019-02-19T09:30:14.937Z,56.28
2019-02-19T09:31:14.922Z,56.00
2019-02-19T09:32:14.930Z,57.28
2019-02-19T09:33:14.903Z,57.00
2019-02-19T09:34:14.884Z,54.49
2019-02-19T09:35:14.886Z,54.82
2019-02-19T09:36:14.867Z,55.05
2019-02-19T09:37:14.855Z,54.54
2019-02-19T09:38:14.861Z,53.03
2019-02-19T09:39:14.842Z,54.61
2019-02-19T09:40:14.836Z,54.90
2019-02-19T09:41:14.818Z,55.23
2019-02-19T09:42:14.800Z,55.02
2019-02-19T09:43:14.796Z,56.07
2019-02-19T09:44:14.801Z,56.92
2019-02-19T09:45:14.769Z,57.00
2019-02-19T09:46:14.759Z,55.54
2019-02-19T09:47:14.746Z,56.49
2019-02-19T09:48:14.737Z,57.26
2019-02-19T09:49:14.726Z,57.95
2019-02-19T09:50:14.734Z,55.74
2019-02-19T09:51:14.704Z,55.21
2019-02-19T09:52:14.691Z,55.02
2019-02-19T09:53:14.681Z,56.82
2019-02-19T09:54:14.675Z,58.59
2019-02-19T09:55:14.660Z,58.05
2019-02-19T09:56:14.669Z,57.05
2019-02-19T09:57:14.640Z,54.54
2019-02-19T09:58:14.627Z,54.95
2019-02-19T09:59:14.619Z,54.92
2019-02-19T10:00:14.643Z,55.10
2019-02-19T10:01:14.598Z,56.59
2019-02-19T10:02:14.598Z,56.28
2019-02-19T10:03:14.574Z,56.51
2019-02-19T10:04:14.567Z,56.92
2019-02-19T10:05:14.554Z,57.23
2019-02-19T10:06:14.545Z,56.92
2019-02-19T10:07:14.535Z,56.90
2019-02-19T10:08:14.536Z,56.18
2019-02-19T10:09:14.513Z,54.36
2019-02-19T10:10:14.499Z,52.95
2019-02-19T10:11:14.483Z,51.60
2019-02-19T10:12:14.473Z,51.27
2019-02-19T10:13:14.461Z,51.29
2019-02-19T10:14:14.470Z,52.98
2019-02-19T10:15:14.443Z,53.16
2019-02-19T10:16:14.433Z,54.18
2019-02-19T10:17:14.420Z,53.64
2019-02-19T10:18:14.406Z,51.98
2019-02-19T10:19:14.396Z,53.13
2019-02-19T10:20:14.400Z,54.08
2019-02-19T10:21:14.374Z,54.69
2019-02-19T10:22:14.364Z,56.35
2019-02-19T10:23:14.354Z,55.28
2019-02-19T10:24:14.366Z,53.42
2019-02-19T10:25:14.350Z,53.52
2019-02-19T10:26:14.343Z,54.13
2019-02-19T10:27:14.308Z,53.16
2019-02-19T10:28:14.298Z,51.38
2019-02-19T10:29:14.286Z,50.95
2019-02-19T10:30:14.277Z,49.77
2019-02-19T10:31:14.266Z,50.89
2019-02-19T10:32:14.270Z,50.42
2019-02-19T10:33:14.244Z,49.40
2019-02-19T10:34:14.231Z,50.13
2019-02-19T10:35:14.224Z,51.86
2019-02-19T10:36:14.215Z,53.95
2019-02-19T10:37:14.202Z,54.26
2019-02-19T10:38:14.229Z,54.59
2019-02-19T10:39:14.177Z,54.69
2019-02-19T10:40:14.167Z,54.44
2019-02-19T10:41:14.168Z,53.75
2019-02-19T10:42:14.149Z,50.87
2019-02-19T10:43:14.135Z,49.33
2019-02-19T10:44:14.135Z,48.51
2019-02-19T10:45:14.111Z,48.08
2019-02-19T10:46:14.101Z,48.00
2019-02-19T10:47:14.094Z,48.31
2019-02-19T10:48:19.086Z,48.49
2019-02-19T10:49:15.085Z,48.06
2019-02-19T10:50:14.056Z,47.78
2019-02-19T10:51:14.049Z,48.31
2019-02-19T10:52:14.033Z,48.11
2019-02-19T10:53:14.024Z,48.31
2019-02-19T10:54:14.011Z,47.63
2019-02-19T10:55:14.100Z,47.10
2019-02-19T10:56:13.995Z,45.78
2019-02-19T10:57:13.979Z,47.02
2019-02-19T10:58:22.317Z,45.86
2019-02-19T10:59:14.966Z,45.23
2019-02-19T11:00:13.954Z,45.07
2019-02-19T11:01:13.953Z,44.13
2019-02-19T11:02:13.924Z,42.92
2019-02-19T11:03:13.919Z,42.94
2019-02-19T11:04:13.903Z,43.85
2019-02-19T11:05:13.896Z,43.04
2019-02-19T11:06:13.880Z,42.88
2019-02-19T11:07:13.890Z,43.20
2019-02-19T11:08:13.862Z,42.96
2019-02-19T11:09:13.851Z,42.02
2019-02-19T11:10:13.838Z,41.60
2019-02-19T11:11:13.826Z,41.52
2019-02-19T11:12:13.830Z,42.13
2019-02-19T11:13:14.567Z,41.48
2019-02-19T11:14:13.803Z,40.55
2019-02-19T11:15:13.780Z,40.28
2019-02-19T11:16:13.771Z,40.99
2019-02-19T11:17:13.761Z,41.58
2019-02-19T11:18:13.748Z,40.12
2019-02-19T11:19:13.761Z,38.99
2019-02-19T11:20:13.750Z,37.67
2019-02-19T11:21:19.745Z,39.86
2019-02-19T11:22:14.707Z,40.48
2019-02-19T11:23:13.698Z,40.45
2019-02-19T11:24:13.682Z,39.19
2019-02-19T11:25:13.704Z,36.74
2019-02-19T11:26:13.662Z,38.01
2019-02-19T11:27:13.651Z,38.48
2019-02-19T11:28:13.637Z,37.47
2019-02-19T11:29:13.633Z,39.33
2019-02-19T11:30:13.619Z,38.68
2019-02-19T11:31:13.624Z,37.54
2019-02-19T11:32:13.605Z,37.74
2019-02-19T11:33:13.586Z,37.50
2019-02-19T11:34:13.577Z,40.00
2019-02-19T11:35:13.563Z,39.11
2019-02-19T11:36:13.554Z,39.62
2019-02-19T11:37:13.576Z,40.34
2019-02-19T11:38:13.535Z,41.19
2019-02-19T11:39:13.519Z,42.14
2019-02-19T11:40:13.507Z,43.61
2019-02-19T11:41:13.497Z,43.91
2019-02-19T11:42:13.484Z,43.55
2019-02-19T11:43:13.491Z,44.24
2019-02-19T11:44:13.462Z,44.22
2019-02-19T11:45:13.453Z,43.41
2019-02-19T11:46:13.443Z,43.99
2019-02-19T11:47:13.432Z,42.11
2019-02-19T11:48:13.422Z,41.30
2019-02-19T11:49:13.431Z,41.38
2019-02-19T11:50:13.397Z,40.43
2019-02-19T11:51:13.389Z,39.82
2019-02-19T11:52:13.379Z,39.94
2019-02-19T11:53:13.366Z,39.42
2019-02-19T11:54:13.356Z,39.23
2019-02-19T11:55:13.364Z,40.85
2019-02-19T11:56:13.330Z,40.75
2019-02-19T11:57:13.322Z,40.55
2019-02-19T11:58:13.309Z,41.19
2019-02-19T11:59:13.300Z,42.23
2019-02-19T12:00:13.287Z,41.99
2019-02-19T12:01:13.314Z,40.31
2019-02-19T12:02:13.301Z,39.39
2019-02-19T12:03:13.255Z,40.33
2019-02-19T12:04:13.243Z,40.61
2019-02-19T12:05:13.233Z,39.60
2019-02-19T12:06:13.226Z,39.26
2019-02-19T12:07:13.226Z,38.61
2019-02-19T12:08:13.200Z,38.09
2019-02-19T12:09:13.187Z,37.87
2019-02-19T12:10:13.179Z,36.55
2019-02-19T12:11:13.165Z,37.24
2019-02-19T12:12:13.155Z,36.24
2019-02-19T12:13:13.158Z,36.64
2019-02-19T12:14:13.136Z,37.15
2019-02-19T12:15:13.122Z,36.22
2019-02-19T12:16:13.119Z,35.60
2019-02-19T12:17:13.127Z,35.53
2019-02-19T12:18:13.090Z,37.50
2019-02-19T12:19:13.096Z,39.70
2019-02-19T12:20:13.068Z,40.24
2019-02-19T12:21:13.058Z,41.19
2019-02-19T12:22:13.047Z,42.11
2019-02-19T12:23:13.036Z,42.86
2019-02-19T12:24:13.027Z,43.29
2019-02-19T12:25:13.301Z,43.49
2019-02-19T12:26:13.679Z,42.96
2019-02-19T12:27:13.703Z,43.24
2019-02-19T12:28:14.078Z,42.84
2019-02-19T12:29:13.689Z,41.70
2019-02-19T12:30:13.635Z,43.02
2019-02-19T12:31:14.045Z,42.63
2019-02-19T12:32:13.626Z,43.43
2019-02-19T12:33:13.354Z,42.90
2019-02-19T12:34:12.918Z,41.24
2019-02-19T12:35:12.906Z,41.46
2019-02-19T12:36:12.893Z,42.19
2019-02-19T12:37:12.899Z,42.94
2019-02-19T12:38:12.871Z,43.06
2019-02-19T12:39:12.865Z,43.55
2019-02-19T12:40:12.851Z,42.49
2019-02-19T12:41:12.838Z,43.12
2019-02-19T12:42:12.829Z,43.44
2019-02-19T12:43:12.842Z,43.71
2019-02-19T12:44:12.806Z,44.42
2019-02-19T12:45:12.797Z,44.91
2019-02-19T12:46:12.785Z,44.30
2019-02-19T12:47:12.775Z,43.85
2019-02-19T12:48:12.761Z,43.93
2019-02-19T12:49:12.762Z,43.43
2019-02-19T12:50:12.744Z,43.30
2019-02-19T12:51:12.730Z,43.12
2019-02-19T12:52:12.719Z,43.12
2019-02-19T12:53:12.706Z,43.04